Alpine, Wyoming
Current Conditions -  °F | °C
As of 8:55 PM on Saturday 25 Oct 2014 (Local Time) from KAFO Reporting Station
Clear Clear  
Wind Chill: 10°   Ceiling: Unl
Heat Index: 10°   Visibility: 10mi
Dew Point:   Wind: 6mph
Humidity: 50%   Direction: 140°SE
Pressure: 29.95"   Gusts: NA
Location:  43.18°N, 111.03°W
Report Text: KAFO 260255Z AUTO 14005KT 10SM CLR 10/00 A2995 RMK AO2
Loading
Personal Weather Stations






























Interactive Weather Map New forecast layout! Learn more

10-Day Weather Forecast

Advertisements
Track Severe Weather on mobile